Time;durP1;ratioP1;P1;durP2;ratioP2;P2;SDS_P1;SDS_P2;PMS_P1;PMS_P2;Temp;Humidity;BMP_temperature;BMP_pressure;BME280_temperature;BME280_humidity;BME280_pressure;Samples;Min_cycle;Max_cycle;Signal;HPM_P1;HPM_P2
2023/05/30 00:01:22;;;;;;;12.43;3.42;;;11.40;99.90;;;;;;5119398;28;20052;-58
2023/05/30 00:03:48;;;;;;;9.98;3.40;;;11.40;99.90;;;;;;5119961;28;20114;-58
2023/05/30 00:06:15;;;;;;;11.73;3.20;;;11.40;99.90;;;;;;5119465;28;20044;-57
2023/05/30 00:08:42;;;;;;;9.68;3.33;;;11.40;99.90;;;;;;5119256;28;20075;-58
2023/05/30 00:11:09;;;;;;;10.93;3.58;;;11.30;99.90;;;;;;5120011;28;20043;-58
2023/05/30 00:13:35;;;;;;;11.65;3.35;;;11.40;99.90;;;;;;5119005;28;20414;-58
2023/05/30 00:16:03;;;;;;;13.10;3.20;;;11.40;99.90;;;;;;5119424;28;20063;-57
2023/05/30 00:18:34;;;;;;;10.48;3.28;;;11.50;99.90;;;;;;5119002;28;20196;-57
2023/05/30 00:21:02;;;;;;;11.95;3.50;;;11.40;99.90;;;;;;5118103;28;20044;-58
2023/05/30 00:23:28;;;;;;;13.52;3.28;;;11.40;99.90;;;;;;5119187;28;20063;-57
2023/05/30 00:25:55;;;;;;;12.15;4.40;;;11.30;99.90;;;;;;5119336;28;20032;-57
2023/05/30 00:28:22;;;;;;;12.43;3.83;;;11.30;99.90;;;;;;5119697;28;20099;-58
2023/05/30 00:30:48;;;;;;;12.68;4.35;;;11.30;99.90;;;;;;5118891;28;20103;-58
2023/05/30 00:33:14;;;;;;;16.85;3.90;;;11.40;99.90;;;;;;5120117;28;20050;-58
2023/05/30 00:35:40;;;;;;;11.98;3.05;;;11.40;99.90;;;;;;5118381;28;20047;-57
2023/05/30 00:38:06;;;;;;;8.77;3.17;;;11.40;99.90;;;;;;5119402;28;20153;-58
2023/05/30 00:40:32;;;;;;;11.27;3.40;;;11.40;99.90;;;;;;5119043;28;20051;-58
2023/05/30 00:42:58;;;;;;;11.65;3.15;;;11.50;99.90;;;;;;5119117;28;20105;-58
2023/05/30 00:45:23;;;;;;;12.98;3.92;;;11.30;99.90;;;;;;5119157;28;20055;-58
2023/05/30 00:47:51;;;;;;;11.10;3.13;;;11.40;99.90;;;;;;5118657;28;20046;-58
2023/05/30 00:50:18;;;;;;;9.48;3.20;;;11.40;99.90;;;;;;5119845;28;20055;-58
2023/05/30 00:52:48;;;;;;;12.05;3.63;;;11.40;99.90;;;;;;5118829;28;20054;-59
2023/05/30 00:55:16;;;;;;;12.15;3.05;;;11.30;99.90;;;;;;5118757;28;20074;-58
2023/05/30 00:57:43;;;;;;;12.45;3.30;;;11.30;99.90;;;;;;5118803;28;20123;-58
2023/05/30 01:00:10;;;;;;;11.75;3.22;;;11.30;99.90;;;;;;5118970;28;20086;-58
2023/05/30 01:02:38;;;;;;;11.05;2.90;;;11.30;99.90;;;;;;5118837;28;20047;-58
2023/05/30 01:05:04;;;;;;;11.73;3.20;;;11.40;99.90;;;;;;5118439;28;20062;-58
2023/05/30 01:07:31;;;;;;;12.70;3.60;;;11.40;99.90;;;;;;5119329;28;20043;-59
2023/05/30 01:09:57;;;;;;;9.57;2.97;;;11.40;99.90;;;;;;5117161;28;20045;-58
2023/05/30 01:12:35;;;;;;;16.27;4.80;;;11.40;99.90;;;;;;5118854;28;20075;-58
2023/05/30 01:15:06;;;;;;;12.70;3.33;;;11.40;99.90;;;;;;5118378;28;20051;-58
2023/05/30 01:17:44;;;;;;;15.63;3.33;;;11.40;99.90;;;;;;5118224;28;20047;-57
2023/05/30 01:20:16;;;;;;;13.23;3.63;;;11.40;99.90;;;;;;5119567;28;20042;-57
2023/05/30 01:23:00;;;;;;;14.35;3.85;;;11.50;99.90;;;;;;5118370;28;20044;-57
2023/05/30 01:25:35;;;;;;;10.02;3.00;;;11.40;99.90;;;;;;5118126;28;20130;-57
2023/05/30 01:28:12;;;;;;;11.38;3.47;;;11.40;99.90;;;;;;5118845;28;20111;-58
2023/05/30 01:30:42;;;;;;;11.60;3.40;;;11.40;99.90;;;;;;5122035;28;20095;-56
2023/05/30 01:33:09;;;;;;;9.60;3.22;;;11.30;99.90;;;;;;5123499;28;20058;-56
2023/05/30 01:35:35;;;;;;;10.38;4.00;;;11.30;99.90;;;;;;5120865;28;20048;-58
2023/05/30 01:38:01;;;;;;;9.57;3.30;;;11.30;99.90;;;;;;5122473;28;20040;-58
2023/05/30 01:40:28;;;;;;;11.98;3.15;;;11.40;99.90;;;;;;5122242;28;20039;-58
2023/05/30 01:43:01;;;;;;;11.52;3.65;;;11.30;99.90;;;;;;5120738;28;20055;-58
2023/05/30 01:45:49;;;;;;;13.05;3.85;;;11.30;99.90;;;;;;5121612;28;20043;-57
2023/05/30 01:48:45;;;;;;;15.35;3.55;;;11.30;99.90;;;;;;5121692;28;20044;-55
2023/05/30 01:51:15;;;;;;;13.80;3.47;;;11.40;99.90;;;;;;5120831;28;20455;-58
2023/05/30 01:53:48;;;;;;;13.98;4.97;;;11.40;99.90;;;;;;5122488;28;20035;-58
2023/05/30 01:56:15;;;;;;;12.65;3.63;;;11.40;99.90;;;;;;5120249;28;20097;-57
2023/05/30 01:58:41;;;;;;;15.32;4.43;;;11.40;99.90;;;;;;5123173;28;20474;-58
2023/05/30 02:01:08;;;;;;;14.48;3.60;;;11.40;99.90;;;;;;5121480;28;20051;-57
2023/05/30 02:03:34;;;;;;;11.43;3.75;;;11.40;99.90;;;;;;5122515;28;20048;-58
2023/05/30 02:06:00;;;;;;;14.77;4.15;;;11.40;99.90;;;;;;5122139;28;20036;-57
2023/05/30 02:08:27;;;;;;;11.05;3.90;;;11.50;99.90;;;;;;5121970;28;20028;-57
2023/05/30 02:10:52;;;;;;;11.05;3.92;;;11.50;99.90;;;;;;5120649;28;20054;-57
2023/05/30 02:13:18;;;;;;;12.63;4.18;;;11.40;99.90;;;;;;5121462;28;20044;-57
2023/05/30 02:15:44;;;;;;;12.20;3.33;;;11.40;99.90;;;;;;5122491;28;20054;-57
2023/05/30 02:18:10;;;;;;;14.63;3.35;;;11.50;99.90;;;;;;5121229;28;20110;-58
2023/05/30 02:20:36;;;;;;;18.42;4.65;;;11.40;99.90;;;;;;5122122;28;20070;-57
2023/05/30 02:23:02;;;;;;;9.68;3.25;;;11.40;99.90;;;;;;5121304;28;20040;-57
2023/05/30 02:25:28;;;;;;;11.18;3.53;;;11.50;99.90;;;;;;5121500;28;20052;-57
2023/05/30 02:27:54;;;;;;;10.77;3.60;;;11.40;99.90;;;;;;5121597;28;20046;-57
2023/05/30 02:30:20;;;;;;;11.63;3.63;;;11.40;99.90;;;;;;5120358;28;20040;-58
2023/05/30 02:32:45;;;;;;;11.00;3.25;;;11.40;99.90;;;;;;5121135;28;20062;-58
2023/05/30 02:35:11;;;;;;;14.50;4.00;;;11.40;99.90;;;;;;5120873;28;20036;-58
2023/05/30 02:37:39;;;;;;;13.45;4.50;;;11.50;99.90;;;;;;5120868;28;20096;-57
2023/05/30 02:40:07;;;;;;;12.98;3.50;;;11.50;99.90;;;;;;5120322;28;20048;-57
2023/05/30 02:42:33;;;;;;;11.18;3.30;;;11.40;99.90;;;;;;5120925;28;20040;-56
2023/05/30 02:44:59;;;;;;;10.90;3.75;;;11.40;99.90;;;;;;5121090;28;20372;-57
2023/05/30 02:47:25;;;;;;;13.43;4.30;;;11.40;99.90;;;;;;5121313;28;20114;-57
2023/05/30 02:49:51;;;;;;;13.23;4.30;;;11.40;99.90;;;;;;5121727;28;20050;-57
2023/05/30 02:52:16;;;;;;;13.85;5.57;;;11.40;99.90;;;;;;5120624;28;20121;-57
2023/05/30 02:54:43;;;;;;;12.27;4.38;;;11.40;99.90;;;;;;5121695;28;20055;-57
2023/05/30 02:57:09;;;;;;;17.90;4.85;;;11.40;99.90;;;;;;5119015;28;20277;-57
2023/05/30 02:59:35;;;;;;;13.43;4.88;;;11.40;99.90;;;;;;5121011;28;20084;-57
2023/05/30 03:02:00;;;;;;;13.20;4.63;;;11.40;99.90;;;;;;5120877;28;20039;-58
2023/05/30 03:04:26;;;;;;;12.27;4.40;;;11.40;99.90;;;;;;5120839;28;20107;-58
2023/05/30 03:06:53;;;;;;;15.77;3.88;;;11.40;99.90;;;;;;5121234;28;20043;-57
2023/05/30 03:09:19;;;;;;;12.18;4.00;;;11.40;99.90;;;;;;5120338;28;20043;-57
2023/05/30 03:11:44;;;;;;;11.00;3.35;;;11.40;99.90;;;;;;5121600;28;20052;-57
2023/05/30 03:14:10;;;;;;;14.02;3.67;;;11.30;99.90;;;;;;5120705;28;20031;-57
2023/05/30 03:16:36;;;;;;;11.48;3.78;;;11.40;99.90;;;;;;5119409;28;20057;-58
2023/05/30 03:19:02;;;;;;;13.13;4.13;;;11.30;99.90;;;;;;5118958;28;20069;-57
2023/05/30 03:21:27;;;;;;;13.20;3.70;;;11.30;99.90;;;;;;5120683;28;20139;-57
2023/05/30 03:23:53;;;;;;;11.02;4.72;;;11.30;99.90;;;;;;5119692;28;20044;-58
2023/05/30 03:26:19;;;;;;;13.10;4.13;;;11.30;99.90;;;;;;5120054;28;20543;-58
2023/05/30 03:28:44;;;;;;;14.68;4.28;;;11.30;99.90;;;;;;5121441;28;20599;-57
2023/05/30 03:31:11;;;;;;;14.35;4.38;;;11.30;99.90;;;;;;5119684;28;20043;-57
2023/05/30 03:33:37;;;;;;;13.05;4.15;;;11.40;99.90;;;;;;5119269;28;20079;-56
2023/05/30 03:36:03;;;;;;;12.55;4.03;;;11.30;99.90;;;;;;5120289;28;20054;-57
2023/05/30 03:38:28;;;;;;;17.75;5.00;;;11.30;99.90;;;;;;5120050;28;20055;-57
2023/05/30 03:40:54;;;;;;;13.40;4.03;;;11.40;99.90;;;;;;5120082;28;20118;-57
2023/05/30 03:43:20;;;;;;;13.95;4.50;;;11.40;99.90;;;;;;5119843;28;20036;-57
2023/05/30 03:45:46;;;;;;;17.48;4.55;;;11.40;99.90;;;;;;5120962;28;20043;-57
2023/05/30 03:48:11;;;;;;;17.15;4.30;;;11.40;99.90;;;;;;5119689;28;20042;-57
2023/05/30 03:50:37;;;;;;;10.85;4.20;;;11.50;99.90;;;;;;5120506;28;20111;-57
2023/05/30 03:53:03;;;;;;;14.77;4.40;;;11.50;99.90;;;;;;5119879;28;20040;-57
2023/05/30 03:55:28;;;;;;;14.45;4.80;;;11.40;99.90;;;;;;5119295;28;20388;-57
2023/05/30 03:57:54;;;;;;;15.20;4.10;;;11.40;99.90;;;;;;5119636;28;20458;-58
2023/05/30 04:00:20;;;;;;;13.23;4.47;;;11.40;99.90;;;;;;5119568;28;20044;-57
2023/05/30 04:02:45;;;;;;;15.88;4.03;;;11.50;99.90;;;;;;5120709;28;20036;-58
2023/05/30 04:05:11;;;;;;;11.88;3.88;;;11.50;99.90;;;;;;5119582;28;20073;-57
2023/05/30 04:07:37;;;;;;;11.25;3.85;;;11.50;99.90;;;;;;5118851;28;20039;-58
2023/05/30 04:10:03;;;;;;;13.27;4.70;;;11.60;99.90;;;;;;5119690;28;20040;-57
2023/05/30 04:12:29;;;;;;;12.93;3.85;;;11.50;99.90;;;;;;5119865;28;20036;-57
2023/05/30 04:14:55;;;;;;;18.70;5.18;;;11.50;99.90;;;;;;5119841;28;20047;-58
2023/05/30 04:17:21;;;;;;;12.77;4.10;;;11.50;99.90;;;;;;5119231;28;20044;-57
2023/05/30 04:19:47;;;;;;;13.85;4.35;;;11.60;99.90;;;;;;5120110;28;20881;-58
2023/05/30 04:22:13;;;;;;;13.52;4.63;;;11.60;99.90;;;;;;5119106;28;20589;-53
2023/05/30 04:24:38;;;;;;;11.38;4.15;;;11.60;99.90;;;;;;5120087;28;20055;-58
2023/05/30 04:27:04;;;;;;;17.67;4.72;;;11.60;99.90;;;;;;5118998;28;20103;-57
2023/05/30 04:29:30;;;;;;;15.55;3.80;;;11.60;99.90;;;;;;5119699;28;20043;-57
2023/05/30 04:31:56;;;;;;;15.63;3.97;;;11.60;99.90;;;;;;5119155;28;20036;-57
2023/05/30 04:34:24;;;;;;;12.10;4.05;;;11.60;99.90;;;;;;5119319;28;20052;-57
2023/05/30 04:36:52;;;;;;;13.02;4.30;;;11.60;99.90;;;;;;5118265;28;20056;-58
2023/05/30 04:39:17;;;;;;;17.63;4.38;;;11.60;99.90;;;;;;5118471;28;20669;-57
2023/05/30 04:41:43;;;;;;;11.73;3.65;;;11.60;99.90;;;;;;5118754;28;20073;-58
2023/05/30 04:44:09;;;;;;;15.20;3.80;;;11.60;99.90;;;;;;5118911;28;20031;-57
2023/05/30 04:46:35;;;;;;;11.05;3.50;;;11.70;99.90;;;;;;5117588;28;20127;-57
2023/05/30 04:49:01;;;;;;;12.95;3.17;;;11.70;99.90;;;;;;5119214;28;20087;-58
2023/05/30 04:51:28;;;;;;;12.25;3.42;;;11.60;99.90;;;;;;5119074;28;20028;-57
2023/05/30 04:53:54;;;;;;;9.98;4.13;;;11.70;99.90;;;;;;5119023;28;20055;-58
2023/05/30 04:56:20;;;;;;;9.10;3.28;;;11.60;99.90;;;;;;5118367;28;20035;-57
2023/05/30 04:58:51;;;;;;;16.13;3.80;;;11.60;99.90;;;;;;5119705;28;20130;-58
2023/05/30 05:01:18;;;;;;;14.50;3.97;;;11.70;99.90;;;;;;5118968;28;20044;-58
2023/05/30 05:03:44;;;;;;;13.68;3.50;;;11.70;99.90;;;;;;5118490;28;20064;-58
2023/05/30 05:06:11;;;;;;;12.60;3.20;;;11.60;99.90;;;;;;5118877;28;20644;-58
2023/05/30 05:08:37;;;;;;;13.20;3.97;;;11.70;99.90;;;;;;5118658;28;20043;-58
2023/05/30 05:11:04;;;;;;;11.00;3.40;;;11.70;99.90;;;;;;5119581;28;20516;-58
2023/05/30 05:13:31;;;;;;;11.15;3.30;;;11.70;99.90;;;;;;5118203;28;20039;-58
2023/05/30 05:15:57;;;;;;;9.75;2.75;;;11.70;99.90;;;;;;5099299;28;20040;-56
2023/05/30 05:18:23;;;;;;;11.18;3.35;;;11.70;99.90;;;;;;5098276;28;20119;-58
2023/05/30 05:20:49;;;;;;;9.82;3.05;;;11.60;99.90;;;;;;5097151;28;20048;-57
2023/05/30 05:23:15;;;;;;;9.52;2.97;;;11.70;99.90;;;;;;5098065;28;20048;-57
2023/05/30 05:25:41;;;;;;;9.57;2.65;;;11.60;99.90;;;;;;5098292;28;20052;-58
2023/05/30 05:28:07;;;;;;;9.45;3.00;;;11.70;99.90;;;;;;5098680;28;20067;-58
2023/05/30 05:30:32;;;;;;;12.30;3.17;;;11.80;99.90;;;;;;5097698;28;20039;-58
2023/05/30 05:32:58;;;;;;;10.63;3.25;;;11.80;99.90;;;;;;5097698;28;20036;-58
2023/05/30 05:35:24;;;;;;;10.18;2.80;;;11.80;99.90;;;;;;5097528;28;20111;-57
2023/05/30 05:37:49;;;;;;;9.85;2.50;;;11.70;99.90;;;;;;5096508;28;20040;-57
2023/05/30 05:40:15;;;;;;;9.02;2.65;;;11.70;99.90;;;;;;5094676;28;20044;-58
2023/05/30 05:42:42;;;;;;;8.93;2.47;;;11.70;99.90;;;;;;5093513;28;20201;-57
2023/05/30 05:45:08;;;;;;;9.07;2.60;;;11.70;99.90;;;;;;5095062;28;20090;-58
2023/05/30 05:47:34;;;;;;;8.35;2.35;;;11.70;99.90;;;;;;5094688;28;20044;-57
2023/05/30 05:50:00;;;;;;;8.93;2.78;;;11.80;99.90;;;;;;5095352;28;20044;-58
2023/05/30 05:52:26;;;;;;;10.25;2.90;;;11.70;99.90;;;;;;5094641;28;20044;-56
2023/05/30 05:54:52;;;;;;;10.32;2.78;;;11.80;99.90;;;;;;5095554;28;20043;-57
2023/05/30 05:57:18;;;;;;;9.57;3.35;;;11.70;99.90;;;;;;5094534;28;20076;-57
2023/05/30 05:59:43;;;;;;;9.45;2.97;;;11.70;99.90;;;;;;5094718;28;20044;-56
2023/05/30 06:02:10;;;;;;;9.02;2.85;;;11.90;99.90;;;;;;5094466;28;20103;-56
2023/05/30 06:04:36;;;;;;;11.35;2.88;;;11.90;99.90;;;;;;5094230;28;20109;-57
2023/05/30 06:07:02;;;;;;;11.38;3.45;;;11.80;99.90;;;;;;5095394;28;20040;-58
2023/05/30 06:09:31;;;;;;;10.40;3.50;;;11.80;99.90;;;;;;5094109;28;20081;-57
2023/05/30 06:12:02;;;;;;;13.68;3.20;;;11.90;99.90;;;;;;5095466;28;20095;-58
2023/05/30 06:14:29;;;;;;;10.75;3.10;;;12.00;99.90;;;;;;5095028;28;20051;-57
2023/05/30 06:16:54;;;;;;;8.85;3.22;;;12.00;99.90;;;;;;5102764;28;20043;-58
2023/05/30 06:19:21;;;;;;;13.02;4.18;;;12.00;99.90;;;;;;5099896;28;20055;-58
2023/05/30 06:21:46;;;;;;;12.95;3.50;;;12.00;99.90;;;;;;5118490;27;20052;-62
2023/05/30 06:24:12;;;;;;;14.00;4.25;;;11.90;99.90;;;;;;5118969;28;20066;-58
2023/05/30 06:26:37;;;;;;;11.15;3.08;;;12.00;99.90;;;;;;5118058;28;20047;-57
2023/05/30 06:29:03;;;;;;;7.97;3.15;;;11.90;99.90;;;;;;5119166;28;20058;-59
2023/05/30 06:31:29;;;;;;;11.82;2.95;;;11.80;99.90;;;;;;5117065;28;20044;-58
2023/05/30 06:33:54;;;;;;;8.73;2.78;;;11.90;99.90;;;;;;5118128;28;20036;-57
2023/05/30 06:36:20;;;;;;;7.57;2.67;;;11.90;99.90;;;;;;5118033;28;20044;-56
2023/05/30 06:38:46;;;;;;;9.57;2.53;;;11.90;99.90;;;;;;5118062;28;20516;-57
2023/05/30 06:41:12;;;;;;;6.72;2.58;;;12.00;99.90;;;;;;5119074;28;20079;-58
2023/05/30 06:43:38;;;;;;;6.70;2.50;;;11.90;99.90;;;;;;5116656;28;20044;-57
2023/05/30 06:46:05;;;;;;;7.15;2.60;;;12.00;99.90;;;;;;5118752;28;20044;-56
2023/05/30 06:48:30;;;;;;;9.07;2.80;;;12.00;99.90;;;;;;5117793;28;20040;-57
2023/05/30 06:50:56;;;;;;;6.32;2.25;;;11.90;99.90;;;;;;5117591;28;20040;-57
2023/05/30 06:53:22;;;;;;;8.50;2.70;;;12.00;99.90;;;;;;5116541;28;20056;-57
2023/05/30 06:55:47;;;;;;;9.10;2.28;;;11.90;99.90;;;;;;5117883;28;20051;-57
2023/05/30 06:58:13;;;;;;;9.32;2.30;;;12.00;99.90;;;;;;5118506;28;20803;-56
2023/05/30 07:00:39;;;;;;;7.05;2.05;;;12.00;99.90;;;;;;5117320;28;20657;-57
2023/05/30 07:03:05;;;;;;;8.45;2.45;;;12.10;99.90;;;;;;5118062;28;20043;-57
2023/05/30 07:05:30;;;;;;;7.25;2.15;;;12.10;99.90;;;;;;5117362;27;20047;-57
2023/05/30 07:07:56;;;;;;;6.15;2.10;;;12.10;99.90;;;;;;5117738;28;20118;-59
2023/05/30 07:10:22;;;;;;;8.55;2.15;;;12.10;99.90;;;;;;5117112;28;20051;-56
2023/05/30 07:12:48;;;;;;;9.95;2.40;;;12.20;99.90;;;;;;5117871;28;20043;-55
2023/05/30 07:15:13;;;;;;;8.00;2.33;;;12.20;99.90;;;;;;5117541;28;20872;-57
2023/05/30 07:17:39;;;;;;;8.38;2.67;;;12.10;99.90;;;;;;5116943;28;20059;-57
2023/05/30 07:20:06;;;;;;;8.48;2.40;;;12.10;99.90;;;;;;5118319;28;20039;-57
2023/05/30 07:22:32;;;;;;;7.13;2.38;;;12.10;99.90;;;;;;5117043;28;20079;-57
2023/05/30 07:24:58;;;;;;;7.68;2.45;;;12.00;99.90;;;;;;5117051;28;20650;-57
2023/05/30 07:27:23;;;;;;;7.63;2.28;;;12.00;99.90;;;;;;5116946;28;20122;-57
2023/05/30 07:29:49;;;;;;;7.03;2.15;;;12.10;99.90;;;;;;5116944;28;20039;-57
2023/05/30 07:32:15;;;;;;;7.07;2.28;;;12.30;99.90;;;;;;5117276;28;20051;-57
2023/05/30 07:34:42;;;;;;;5.18;1.75;;;12.20;99.90;;;;;;5116441;28;20058;-55
2023/05/30 07:37:08;;;;;;;6.78;1.88;;;12.40;99.90;;;;;;5117917;28;20055;-57
2023/05/30 07:39:34;;;;;;;8.68;2.03;;;12.20;99.90;;;;;;5116182;28;20043;-57
2023/05/30 07:42:00;;;;;;;3.78;1.40;;;12.20;99.90;;;;;;5117448;28;20055;-57
2023/05/30 07:44:26;;;;;;;4.30;1.33;;;12.10;99.90;;;;;;5115681;28;20044;-57
2023/05/30 07:46:52;;;;;;;4.47;1.30;;;12.10;99.90;;;;;;5115083;28;20464;-57
2023/05/30 07:49:19;;;;;;;4.97;0.90;;;11.90;99.90;;;;;;5116809;28;20051;-57
2023/05/30 07:51:45;;;;;;;4.45;1.73;;;11.80;99.90;;;;;;5116175;28;20047;-57
2023/05/30 07:54:11;;;;;;;2.78;0.80;;;12.00;99.90;;;;;;5116923;28;20049;-57
2023/05/30 07:56:36;;;;;;;3.88;1.05;;;12.00;99.90;;;;;;5115853;28;20964;-56
2023/05/30 07:59:03;;;;;;;6.85;2.28;;;11.90;99.90;;;;;;5116427;28;20075;-57
2023/05/30 08:01:28;;;;;;;3.47;1.05;;;12.10;99.90;;;;;;5113550;28;20070;-57
2023/05/30 08:03:54;;;;;;;3.85;1.00;;;12.00;99.90;;;;;;5116610;28;20126;-57
2023/05/30 08:06:20;;;;;;;4.53;1.02;;;12.30;99.90;;;;;;5116278;28;20035;-57
2023/05/30 08:08:46;;;;;;;3.55;1.05;;;12.30;99.90;;;;;;5117216;28;20047;-58
2023/05/30 08:11:14;;;;;;;2.83;1.00;;;12.40;99.90;;;;;;5119325;28;20475;-57
2023/05/30 08:13:41;;;;;;;3.63;0.90;;;12.40;99.90;;;;;;5118792;28;20052;-57
2023/05/30 08:16:10;;;;;;;4.10;0.95;;;12.40;99.90;;;;;;5120167;28;20095;-58
2023/05/30 08:18:37;;;;;;;5.38;1.00;;;12.50;99.90;;;;;;5119657;28;20039;-57
2023/05/30 08:21:03;;;;;;;4.68;1.10;;;12.50;99.90;;;;;;5119559;28;20047;-58
2023/05/30 08:23:28;;;;;;;2.88;0.80;;;12.40;99.90;;;;;;5119857;28;20051;-57
2023/05/30 08:25:56;;;;;;;3.60;0.70;;;12.60;99.90;;;;;;5117925;28;20058;-58
2023/05/30 08:28:22;;;;;;;3.85;0.70;;;12.80;99.90;;;;;;5119774;28;20051;-56
2023/05/30 08:30:48;;;;;;;2.55;0.73;;;12.90;99.90;;;;;;5118902;28;20035;-56
2023/05/30 08:33:18;;;;;;;3.75;1.20;;;13.00;99.90;;;;;;5120283;28;20039;-56
2023/05/30 08:35:45;;;;;;;4.10;1.00;;;13.10;99.90;;;;;;5118298;28;20043;-57
2023/05/30 08:38:12;;;;;;;2.72;0.90;;;13.00;99.90;;;;;;5118803;28;20040;-56
2023/05/30 08:40:45;;;;;;;3.35;0.90;;;13.00;99.90;;;;;;5119386;27;20089;-57
2023/05/30 08:43:11;;;;;;;2.90;0.80;;;13.00;99.90;;;;;;5118814;28;20052;-56
2023/05/30 08:45:38;;;;;;;3.15;0.80;;;13.00;99.90;;;;;;5120205;28;20067;-57
2023/05/30 08:48:06;;;;;;;4.13;1.00;;;13.00;99.90;;;;;;5118998;28;20072;-57
2023/05/30 08:50:35;;;;;;;2.85;0.75;;;12.90;99.90;;;;;;5119613;28;20114;-57
2023/05/30 08:53:08;;;;;;;2.45;0.80;;;12.90;99.90;;;;;;5117452;28;20062;-56
2023/05/30 08:55:44;;;;;;;1.77;0.70;;;13.00;99.90;;;;;;5118760;28;20530;-57
2023/05/30 08:58:24;;;;;;;1.30;0.70;;;13.00;99.90;;;;;;5119203;28;20059;-57
2023/05/30 09:00:52;;;;;;;2.70;0.70;;;13.20;99.90;;;;;;5118442;28;20039;-56
2023/05/30 09:03:20;;;;;;;3.03;0.93;;;12.90;99.90;;;;;;5119408;28;20578;-58
2023/05/30 09:05:46;;;;;;;3.63;0.88;;;12.80;99.90;;;;;;5118494;28;20047;-57
2023/05/30 09:08:13;;;;;;;3.05;0.80;;;12.90;99.90;;;;;;5118452;28;20040;-56
2023/05/30 09:10:48;;;;;;;2.05;0.70;;;13.30;99.90;;;;;;5118906;28;20036;-57
2023/05/30 09:13:15;;;;;;;2.75;0.88;;;13.40;99.90;;;;;;5117786;28;20086;-57
2023/05/30 09:15:40;;;;;;;1.52;0.70;;;13.70;99.90;;;;;;5119625;28;20048;-57
2023/05/30 09:18:06;;;;;;;3.15;0.85;;;13.80;99.90;;;;;;5118356;28;20036;-57
2023/05/30 09:20:32;;;;;;;3.60;0.85;;;14.00;99.90;;;;;;5118736;28;20051;-57
2023/05/30 09:22:59;;;;;;;2.47;0.88;;;14.20;99.90;;;;;;5116902;28;20511;-57
2023/05/30 09:25:24;;;;;;;1.98;0.80;;;14.50;99.90;;;;;;5117875;28;20051;-57
2023/05/30 09:27:52;;;;;;;3.88;0.90;;;14.50;99.90;;;;;;5118750;28;20096;-57
2023/05/30 09:30:18;;;;;;;3.15;0.90;;;14.30;99.90;;;;;;5117592;28;20038;-56
2023/05/30 09:33:03;;;;;;;4.05;0.90;;;14.40;99.90;;;;;;5116876;28;20055;-57
2023/05/30 09:35:29;;;;;;;3.28;1.00;;;14.20;99.90;;;;;;5117392;28;20048;-57
2023/05/30 09:37:55;;;;;;;3.75;1.23;;;14.20;99.90;;;;;;5117768;28;20035;-57
2023/05/30 09:40:23;;;;;;;3.72;1.17;;;14.10;99.90;;;;;;5118460;28;20103;-57
2023/05/30 09:42:51;;;;;;;7.20;1.08;;;13.90;99.90;;;;;;5118070;28;20085;-57
2023/05/30 09:45:22;;;;;;;3.45;1.35;;;13.90;99.90;;;;;;5117423;28;20051;-57
2023/05/30 09:47:50;;;;;;;4.07;1.40;;;13.80;99.90;;;;;;5118217;28;20852;-57
2023/05/30 09:50:18;;;;;;;2.67;0.90;;;13.80;99.90;;;;;;5122728;28;20040;-57
2023/05/30 09:52:45;;;;;;;3.85;1.00;;;13.80;99.90;;;;;;5122492;28;20044;-57
2023/05/30 09:55:14;;;;;;;1.73;0.80;;;13.90;99.90;;;;;;5122162;28;20043;-57
2023/05/30 09:57:45;;;;;;;3.42;1.00;;;13.90;99.90;;;;;;5121809;28;20083;-57
2023/05/30 10:00:13;;;;;;;3.53;1.00;;;13.60;99.90;;;;;;5122035;28;20051;-57
2023/05/30 10:02:41;;;;;;;3.97;1.20;;;13.70;99.90;;;;;;5121700;28;20058;-57
2023/05/30 10:05:18;;;;;;;4.18;1.13;;;13.90;99.90;;;;;;5121602;28;20043;-58
2023/05/30 10:07:46;;;;;;;4.88;1.27;;;14.10;99.90;;;;;;5122542;28;20091;-57
2023/05/30 10:10:14;;;;;;;2.30;0.93;;;14.00;99.90;;;;;;5122081;28;20075;-57
2023/05/30 10:12:42;;;;;;;3.63;1.63;;;14.10;99.90;;;;;;5121625;28;20046;-58
2023/05/30 10:15:09;;;;;;;3.10;1.23;;;14.00;99.90;;;;;;5122274;28;20047;-57
2023/05/30 10:17:38;;;;;;;4.28;1.30;;;14.00;99.90;;;;;;5121800;28;20039;-58
2023/05/30 10:20:09;;;;;;;6.65;1.42;;;14.10;99.90;;;;;;5122739;28;20039;-58
2023/05/30 10:22:44;;;;;;;3.60;1.02;;;14.40;99.90;;;;;;5121641;28;20043;-57
2023/05/30 10:25:11;;;;;;;3.67;1.30;;;14.40;99.90;;;;;;5121668;28;20043;-58
2023/05/30 10:27:46;;;;;;;3.95;1.25;;;14.40;99.90;;;;;;5121906;28;20132;-58
2023/05/30 10:30:12;;;;;;;3.47;1.10;;;14.40;99.90;;;;;;5121634;28;20112;-57
2023/05/30 10:32:52;;;;;;;3.30;1.00;;;14.30;99.90;;;;;;5122303;28;20093;-57
2023/05/30 10:35:20;;;;;;;2.05;0.80;;;14.40;99.90;;;;;;5121153;28;20824;-58
2023/05/30 10:37:47;;;;;;;4.13;0.80;;;14.40;99.90;;;;;;5121842;28;20035;-57
2023/05/30 10:40:19;;;;;;;1.27;0.70;;;14.50;99.90;;;;;;5121466;28;20355;-57
2023/05/30 10:43:13;;;;;;;2.42;0.80;;;14.40;99.90;;;;;;5121537;28;20173;-57
2023/05/30 10:46:00;;;;;;;2.50;0.60;;;14.50;99.90;;;;;;5122151;28;20043;-58
2023/05/30 10:48:52;;;;;;;2.53;0.70;;;14.60;99.90;;;;;;5121619;28;20054;-57
2023/05/30 10:51:19;;;;;;;1.77;0.70;;;14.40;99.90;;;;;;5121596;28;20059;-57
2023/05/30 10:53:46;;;;;;;2.80;0.90;;;14.40;99.90;;;;;;5121886;28;20048;-56
2023/05/30 10:56:34;;;;;;;2.58;0.90;;;14.50;99.90;;;;;;5120581;28;20047;-57
2023/05/30 10:59:02;;;;;;;1.95;0.88;;;14.50;99.90;;;;;;5120044;28;20060;-58
2023/05/30 11:01:29;;;;;;;1.83;1.05;;;14.60;99.90;;;;;;5120648;28;20043;-57
2023/05/30 11:04:06;;;;;;;3.55;1.40;;;14.40;99.90;;;;;;5120507;28;20250;-57
2023/05/30 11:06:34;;;;;;;4.60;1.20;;;14.30;99.90;;;;;;5119406;28;20105;-57
2023/05/30 11:09:17;;;;;;;3.42;1.40;;;14.30;99.90;;;;;;5120604;28;20487;-57
2023/05/30 11:11:47;;;;;;;3.05;1.15;;;13.80;99.90;;;;;;5121839;28;20047;-57
2023/05/30 11:14:14;;;;;;;4.47;1.30;;;14.20;99.90;;;;;;5121003;28;20040;-57
2023/05/30 11:17:01;;;;;;;2.80;1.02;;;14.40;99.90;;;;;;5121330;28;20066;-57
2023/05/30 11:19:40;;;;;;;4.78;1.67;;;14.50;99.90;;;;;;5121303;28;20040;-57
2023/05/30 11:22:16;;;;;;;2.53;1.00;;;14.50;99.90;;;;;;5120687;28;20103;-58
2023/05/30 11:24:42;;;;;;;2.30;0.90;;;14.60;99.90;;;;;;5121462;28;20043;-57
2023/05/30 11:27:12;;;;;;;2.63;1.10;;;14.40;99.90;;;;;;5121261;28;20044;-57
2023/05/30 11:29:43;;;;;;;3.75;1.15;;;14.50;99.90;;;;;;5119543;28;20040;-58
2023/05/30 11:32:12;;;;;;;3.63;1.20;;;14.60;99.90;;;;;;5121263;28;20044;-58
2023/05/30 11:34:38;;;;;;;2.53;1.10;;;14.60;99.90;;;;;;5118961;28;20048;-57
2023/05/30 11:37:04;;;;;;;3.55;1.00;;;14.70;99.90;;;;;;5121670;28;20063;-58
2023/05/30 11:39:36;;;;;;;2.60;0.93;;;14.70;99.90;;;;;;5120244;28;20051;-57
2023/05/30 11:42:03;;;;;;;;;;;14.80;99.90;;;;;;5121766;28;20118;-58
2023/05/30 11:44:32;;;;;;;2.72;1.13;;;14.80;99.90;;;;;;5120688;28;19963;-57
2023/05/30 11:47:02;;;;;;;2.65;1.05;;;14.70;99.90;;;;;;5120571;28;20039;-57
2023/05/30 11:49:28;;;;;;;3.05;1.20;;;14.90;99.90;;;;;;5120630;28;20589;-57
2023/05/30 11:51:54;;;;;;;3.65;1.20;;;15.00;99.90;;;;;;5118953;28;20065;-57
2023/05/30 11:54:20;;;;;;;3.22;1.10;;;15.30;99.90;;;;;;5120381;28;20108;-57
2023/05/30 11:56:47;;;;;;;3.22;1.10;;;15.40;99.90;;;;;;5119483;28;20036;-57
2023/05/30 11:59:20;;;;;;;3.85;1.10;;;15.50;99.90;;;;;;5120437;28;20491;-58
2023/05/30 12:01:59;;;;;;;3.00;1.00;;;15.60;99.90;;;;;;5119756;28;20040;-57
2023/05/30 12:04:29;;;;;;;2.22;0.90;;;15.70;99.90;;;;;;5117361;28;20044;-57
2023/05/30 12:07:00;;;;;;;2.85;1.02;;;15.60;99.90;;;;;;5120826;28;20048;-57
2023/05/30 12:09:27;;;;;;;1.70;0.75;;;15.70;99.90;;;;;;5119178;28;20060;-58
2023/05/30 12:11:59;;;;;;;2.92;1.02;;;15.60;99.90;;;;;;5119298;28;20083;-58
2023/05/30 12:14:44;;;;;;;2.65;0.95;;;15.70;99.90;;;;;;5117247;28;20085;-58
2023/05/30 12:17:21;;;;;;;2.92;0.90;;;15.80;99.90;;;;;;5117617;28;20084;-58
2023/05/30 12:19:56;;;;;;;3.38;1.23;;;15.70;99.90;;;;;;5116457;28;20055;-57
2023/05/30 12:22:23;;;;;;;2.05;0.90;;;15.70;99.90;;;;;;5119346;28;20036;-57
2023/05/30 12:24:49;;;;;;;2.40;0.82;;;15.50;99.90;;;;;;5119845;28;20093;-57
2023/05/30 12:27:26;;;;;;;2.38;0.90;;;15.60;99.90;;;;;;5119722;28;20099;-57
2023/05/30 12:29:52;;;;;;;2.15;0.90;;;15.60;99.90;;;;;;5119633;28;20063;-58
2023/05/30 12:32:25;;;;;;;2.20;0.90;;;15.30;99.90;;;;;;5119620;28;20052;-58
2023/05/30 12:34:53;;;;;;;2.63;1.02;;;15.40;99.90;;;;;;5119162;28;20044;-58
2023/05/30 12:37:19;;;;;;;2.97;1.00;;;15.30;99.90;;;;;;5118889;28;20044;-57
2023/05/30 12:39:45;;;;;;;3.97;1.00;;;15.30;99.90;;;;;;5119294;28;20048;-57
2023/05/30 12:42:11;;;;;;;3.42;1.55;;;15.30;99.90;;;;;;5119197;28;20099;-58
2023/05/30 12:44:46;;;;;;;5.65;1.23;;;15.30;99.90;;;;;;5118849;28;20043;-57
2023/05/30 12:47:12;;;;;;;3.92;1.08;;;15.50;99.90;;;;;;5118455;28;20502;-58